sensor_id;sensor_type;location;lat;lon;timestamp;pressure;altitude;pressure_sealevel;temperature
74060;BMP280;62414;53.436;8.828;2022-09-09T00:00:40;100712.25;;;14.13
74060;BMP280;62414;53.436;8.828;2022-09-09T00:03:11;100709.97;;;14.11
74060;BMP280;62414;53.436;8.828;2022-09-09T00:05:42;100714.34;;;14.09
74060;BMP280;62414;53.436;8.828;2022-09-09T00:08:17;100715.72;;;14.04
74060;BMP280;62414;53.436;8.828;2022-09-09T00:10:45;100715.28;;;14.06
74060;BMP280;62414;53.436;8.828;2022-09-09T00:13:19;100707.69;;;14.10
74060;BMP280;62414;53.436;8.828;2022-09-09T00:15:54;100710.28;;;14.04
74060;BMP280;62414;53.436;8.828;2022-09-09T00:18:25;100707.25;;;14.02
74060;BMP280;62414;53.436;8.828;2022-09-09T00:20:57;100706.06;;;13.94
74060;BMP280;62414;53.436;8.828;2022-09-09T00:23:27;100714.22;;;13.85
74060;BMP280;62414;53.436;8.828;2022-09-09T00:25:59;100715.00;;;13.76
74060;BMP280;62414;53.436;8.828;2022-09-09T00:28:27;100716.34;;;13.72
74060;BMP280;62414;53.436;8.828;2022-09-09T00:30:53;100712.41;;;13.73
74060;BMP280;62414;53.436;8.828;2022-09-09T00:33:20;100715.28;;;13.69
74060;BMP280;62414;53.436;8.828;2022-09-09T00:35:49;100698.66;;;13.67
74060;BMP280;62414;53.436;8.828;2022-09-09T00:38:19;100693.06;;;13.61
74060;BMP280;62414;53.436;8.828;2022-09-09T00:40:51;100708.63;;;13.61
74060;BMP280;62414;53.436;8.828;2022-09-09T00:43:27;100704.84;;;13.58
74060;BMP280;62414;53.436;8.828;2022-09-09T00:46:04;100707.88;;;13.60
74060;BMP280;62414;53.436;8.828;2022-09-09T00:48:35;100702.72;;;13.53
74060;BMP280;62414;53.436;8.828;2022-09-09T00:51:10;100702.28;;;13.55
74060;BMP280;62414;53.436;8.828;2022-09-09T00:54:08;100698.94;;;13.51
74060;BMP280;62414;53.436;8.828;2022-09-09T00:56:44;100697.13;;;13.48
74060;BMP280;62414;53.436;8.828;2022-09-09T00:59:20;100700.13;;;13.41
74060;BMP280;62414;53.436;8.828;2022-09-09T01:01:48;100698.34;;;13.38
74060;BMP280;62414;53.436;8.828;2022-09-09T01:04:18;100698.31;;;13.28
74060;BMP280;62414;53.436;8.828;2022-09-09T01:06:50;100698.47;;;13.25
74060;BMP280;62414;53.436;8.828;2022-09-09T01:09:22;100698.47;;;13.25
74060;BMP280;62414;53.436;8.828;2022-09-09T01:11:55;100706.16;;;13.26
74060;BMP280;62414;53.436;8.828;2022-09-09T01:14:38;100706.28;;;13.14
74060;BMP280;62414;53.436;8.828;2022-09-09T01:17:09;100704.47;;;13.11
74060;BMP280;62414;53.436;8.828;2022-09-09T01:19:48;100694.34;;;13.11
74060;BMP280;62414;53.436;8.828;2022-09-09T01:22:24;100700.09;;;13.13
74060;BMP280;62414;53.436;8.828;2022-09-09T01:25:11;100694.47;;;13.07
74060;BMP280;62414;53.436;8.828;2022-09-09T01:28:06;100701.59;;;13.05
74060;BMP280;62414;53.436;8.828;2022-09-09T01:30:37;100700.84;;;13.14
74060;BMP280;62414;53.436;8.828;2022-09-09T01:33:03;100697.06;;;13.20
74060;BMP280;62414;53.436;8.828;2022-09-09T01:35:35;100703.91;;;13.25
74060;BMP280;62414;53.436;8.828;2022-09-09T01:38:03;100670.84;;;13.35
74060;BMP280;62414;53.436;8.828;2022-09-09T01:40:29;100658.00;;;13.36
74060;BMP280;62414;53.436;8.828;2022-09-09T01:42:56;100656.03;;;13.36
74060;BMP280;62414;53.436;8.828;2022-09-09T01:45:23;100652.56;;;13.36
74060;BMP280;62414;53.436;8.828;2022-09-09T01:47:49;100642.44;;;13.36
74060;BMP280;62414;53.436;8.828;2022-09-09T01:50:35;100640.31;;;13.41
74060;BMP280;62414;53.436;8.828;2022-09-09T01:53:01;100638.22;;;13.35
74060;BMP280;62414;53.436;8.828;2022-09-09T01:55:32;100635.94;;;13.34
74060;BMP280;62414;53.436;8.828;2022-09-09T01:58:11;100634.88;;;13.31
74060;BMP280;62414;53.436;8.828;2022-09-09T02:00:54;100644.84;;;13.25
74060;BMP280;62414;53.436;8.828;2022-09-09T02:03:25;100638.66;;;13.25
74060;BMP280;62414;53.436;8.828;2022-09-09T02:06:05;100635.03;;;13.28
74060;BMP280;62414;53.436;8.828;2022-09-09T02:08:40;100640.03;;;13.29
74060;BMP280;62414;53.436;8.828;2022-09-09T02:11:11;100644.25;;;13.30
74060;BMP280;62414;53.436;8.828;2022-09-09T02:13:43;100639.88;;;13.33
74060;BMP280;62414;53.436;8.828;2022-09-09T02:16:16;100630.03;;;13.35
74060;BMP280;62414;53.436;8.828;2022-09-09T02:18:48;100623.41;;;13.36
74060;BMP280;62414;53.436;8.828;2022-09-09T02:21:16;100624.00;;;13.41
74060;BMP280;62414;53.436;8.828;2022-09-09T02:23:42;100622.81;;;13.42
74060;BMP280;62414;53.436;8.828;2022-09-09T02:26:12;100623.56;;;13.42
74060;BMP280;62414;53.436;8.828;2022-09-09T02:28:39;100618.13;;;13.42
74060;BMP280;62414;53.436;8.828;2022-09-09T02:31:06;100617.81;;;13.40
74060;BMP280;62414;53.436;8.828;2022-09-09T02:33:42;100620.25;;;13.38
74060;BMP280;62414;53.436;8.828;2022-09-09T02:36:10;100618.28;;;13.39
74060;BMP280;62414;53.436;8.828;2022-09-09T02:38:40;100621.88;;;13.35
74060;BMP280;62414;53.436;8.828;2022-09-09T02:41:10;100621.72;;;13.39
74060;BMP280;62414;53.436;8.828;2022-09-09T02:43:36;100606.34;;;13.36
74060;BMP280;62414;53.436;8.828;2022-09-09T02:46:10;100606.03;;;13.34
74060;BMP280;62414;53.436;8.828;2022-09-09T02:48:45;100612.69;;;13.33
74060;BMP280;62414;53.436;8.828;2022-09-09T02:51:17;100610.13;;;13.29
74060;BMP280;62414;53.436;8.828;2022-09-09T02:53:47;100604.53;;;13.24
74060;BMP280;62414;53.436;8.828;2022-09-09T02:56:18;100606.16;;;13.21
74060;BMP280;62414;53.436;8.828;2022-09-09T02:58:47;100611.16;;;13.14
74060;BMP280;62414;53.436;8.828;2022-09-09T03:01:13;100608.25;;;13.08
74060;BMP280;62414;53.436;8.828;2022-09-09T03:03:41;100618.97;;;13.02
74060;BMP280;62414;53.436;8.828;2022-09-09T03:06:10;100625.03;;;13.06
74060;BMP280;62414;53.436;8.828;2022-09-09T03:08:35;100616.00;;;13.10
74060;BMP280;62414;53.436;8.828;2022-09-09T03:11:01;100624.16;;;13.10
74060;BMP280;62414;53.436;8.828;2022-09-09T03:13:29;100621.84;;;13.08
74060;BMP280;62414;53.436;8.828;2022-09-09T03:15:55;100615.09;;;13.13
74060;BMP280;62414;53.436;8.828;2022-09-09T03:18:21;100620.06;;;13.14
74060;BMP280;62414;53.436;8.828;2022-09-09T03:20:51;100624.44;;;13.12
74060;BMP280;62414;53.436;8.828;2022-09-09T03:23:18;100615.38;;;13.15
74060;BMP280;62414;53.436;8.828;2022-09-09T03:25:47;100629.13;;;13.11
74060;BMP280;62414;53.436;8.828;2022-09-09T03:28:13;100633.19;;;13.16
74060;BMP280;62414;53.436;8.828;2022-09-09T03:30:39;100625.38;;;13.18
74060;BMP280;62414;53.436;8.828;2022-09-09T03:33:05;100637.59;;;13.22
74060;BMP280;62414;53.436;8.828;2022-09-09T03:35:32;100628.53;;;13.25
74060;BMP280;62414;53.436;8.828;2022-09-09T03:37:59;100626.28;;;13.24
74060;BMP280;62414;53.436;8.828;2022-09-09T03:40:25;100626.56;;;13.26
74060;BMP280;62414;53.436;8.828;2022-09-09T03:42:50;100624.91;;;13.28
74060;BMP280;62414;53.436;8.828;2022-09-09T03:45:16;100637.00;;;13.27
74060;BMP280;62414;53.436;8.828;2022-09-09T03:47:42;100632.75;;;13.26
74060;BMP280;62414;53.436;8.828;2022-09-09T03:50:08;100636.69;;;13.25
74060;BMP280;62414;53.436;8.828;2022-09-09T03:52:35;100625.06;;;13.25
74060;BMP280;62414;53.436;8.828;2022-09-09T03:55:04;100637.16;;;13.24
74060;BMP280;62414;53.436;8.828;2022-09-09T03:57:30;100632.00;;;13.26
74060;BMP280;62414;53.436;8.828;2022-09-09T03:59:56;100633.84;;;13.29
74060;BMP280;62414;53.436;8.828;2022-09-09T04:02:22;100630.66;;;13.30
74060;BMP280;62414;53.436;8.828;2022-09-09T04:04:47;100633.69;;;13.32
74060;BMP280;62414;53.436;8.828;2022-09-09T04:07:13;100630.50;;;13.34
74060;BMP280;62414;53.436;8.828;2022-09-09T04:09:39;100633.09;;;13.38
74060;BMP280;62414;53.436;8.828;2022-09-09T04:12:06;100630.66;;;13.40
74060;BMP280;62414;53.436;8.828;2022-09-09T04:14:33;100631.28;;;13.44
74060;BMP280;62414;53.436;8.828;2022-09-09T04:16:58;100631.13;;;13.47
74060;BMP280;62414;53.436;8.828;2022-09-09T04:19:25;100632.50;;;13.52
74060;BMP280;62414;53.436;8.828;2022-09-09T04:21:51;100635.66;;;13.50
74060;BMP280;62414;53.436;8.828;2022-09-09T04:24:17;100643.19;;;13.55
74060;BMP280;62414;53.436;8.828;2022-09-09T04:26:43;100640.47;;;13.55
74060;BMP280;62414;53.436;8.828;2022-09-09T04:29:09;100645.47;;;13.57
74060;BMP280;62414;53.436;8.828;2022-09-09T04:31:35;100636.56;;;13.56
74060;BMP280;62414;53.436;8.828;2022-09-09T04:34:00;100639.88;;;13.60
74060;BMP280;62414;53.436;8.828;2022-09-09T04:36:26;100644.88;;;13.62
74060;BMP280;62414;53.436;8.828;2022-09-09T04:38:56;100638.50;;;13.65
74060;BMP280;62414;53.436;8.828;2022-09-09T04:41:22;100639.13;;;13.69
74060;BMP280;62414;53.436;8.828;2022-09-09T04:43:51;100645.00;;;13.68
74060;BMP280;62414;53.436;8.828;2022-09-09T04:46:18;100643.78;;;13.69
74060;BMP280;62414;53.436;8.828;2022-09-09T04:48:43;100646.97;;;13.67
74060;BMP280;62414;53.436;8.828;2022-09-09T04:51:12;100648.03;;;13.70
74060;BMP280;62414;53.436;8.828;2022-09-09T04:53:38;100656.19;;;13.70
74060;BMP280;62414;53.436;8.828;2022-09-09T04:56:06;100653.75;;;13.72
74060;BMP280;62414;53.436;8.828;2022-09-09T04:58:36;100664.19;;;13.73
74060;BMP280;62414;53.436;8.828;2022-09-09T05:01:06;100658.00;;;13.73
74060;BMP280;62414;53.436;8.828;2022-09-09T05:03:33;100664.53;;;13.75
74060;BMP280;62414;53.436;8.828;2022-09-09T05:06:03;100663.56;;;13.78
74060;BMP280;62414;53.436;8.828;2022-09-09T05:08:29;100670.56;;;13.79
74060;BMP280;62414;53.436;8.828;2022-09-09T05:10:55;100678.56;;;13.83
74060;BMP280;62414;53.436;8.828;2022-09-09T05:13:20;100673.72;;;13.87
74060;BMP280;62414;53.436;8.828;2022-09-09T05:15:51;100678.41;;;13.86
74060;BMP280;62414;53.436;8.828;2022-09-09T05:18:17;100680.97;;;13.90
74060;BMP280;62414;53.436;8.828;2022-09-09T05:20:44;100677.03;;;13.91
74060;BMP280;62414;53.436;8.828;2022-09-09T05:23:10;100674.59;;;13.93
74060;BMP280;62414;53.436;8.828;2022-09-09T05:25:36;100687.31;;;13.96
74060;BMP280;62414;53.436;8.828;2022-09-09T05:28:01;100684.13;;;13.97
74060;BMP280;62414;53.436;8.828;2022-09-09T05:30:27;100681.25;;;14.01
74060;BMP280;62414;53.436;8.828;2022-09-09T05:32:55;100687.47;;;14.02
74060;BMP280;62414;53.436;8.828;2022-09-09T05:35:21;100697.72;;;14.07
74060;BMP280;62414;53.436;8.828;2022-09-09T05:37:48;100697.72;;;14.07
74060;BMP280;62414;53.436;8.828;2022-09-09T05:40:13;100696.97;;;14.06
74060;BMP280;62414;53.436;8.828;2022-09-09T05:42:39;100703.31;;;14.12
74060;BMP280;62414;53.436;8.828;2022-09-09T05:45:06;100701.63;;;14.15
74060;BMP280;62414;53.436;8.828;2022-09-09T05:47:32;100710.09;;;14.17
74060;BMP280;62414;53.436;8.828;2022-09-09T05:49:58;100709.06;;;14.14
74060;BMP280;62414;53.436;8.828;2022-09-09T05:52:23;100708.16;;;14.17
74060;BMP280;62414;53.436;8.828;2022-09-09T05:54:50;100708.16;;;14.17
74060;BMP280;62414;53.436;8.828;2022-09-09T05:57:15;100714.66;;;14.20
74060;BMP280;62414;53.436;8.828;2022-09-09T05:59:42;100718.25;;;14.17
74060;BMP280;62414;53.436;8.828;2022-09-09T06:02:08;100715.53;;;14.17
74060;BMP280;62414;53.436;8.828;2022-09-09T06:04:35;100721.75;;;14.17
74060;BMP280;62414;53.436;8.828;2022-09-09T06:07:02;100722.19;;;14.16
74060;BMP280;62414;53.436;8.828;2022-09-09T06:09:29;100725.66;;;14.16
74060;BMP280;62414;53.436;8.828;2022-09-09T06:11:56;100724.03;;;14.10
74060;BMP280;62414;53.436;8.828;2022-09-09T06:14:22;100721.03;;;14.08
74060;BMP280;62414;53.436;8.828;2022-09-09T06:16:49;100720.25;;;14.07
74060;BMP280;62414;53.436;8.828;2022-09-09T06:19:19;100726.63;;;14.13
74060;BMP280;62414;53.436;8.828;2022-09-09T06:21:44;100728.56;;;14.22
74060;BMP280;62414;53.436;8.828;2022-09-09T06:24:10;100727.47;;;14.28
74060;BMP280;62414;53.436;8.828;2022-09-09T06:26:38;100730.47;;;14.40
74060;BMP280;62414;53.436;8.828;2022-09-09T06:29:05;100733.94;;;14.49
74060;BMP280;62414;53.436;8.828;2022-09-09T06:31:33;100731.97;;;14.50
74060;BMP280;62414;53.436;8.828;2022-09-09T06:34:06;100733.19;;;14.49
74060;BMP280;62414;53.436;8.828;2022-09-09T06:36:34;100739.56;;;14.46
74060;BMP280;62414;53.436;8.828;2022-09-09T06:39:01;100733.81;;;14.44
74060;BMP280;62414;53.436;8.828;2022-09-09T06:41:31;100737.41;;;14.50
74060;BMP280;62414;53.436;8.828;2022-09-09T06:43:57;100742.53;;;14.57
74060;BMP280;62414;53.436;8.828;2022-09-09T06:46:31;100740.09;;;14.68
74060;BMP280;62414;53.436;8.828;2022-09-09T06:48:57;100734.59;;;14.77
74060;BMP280;62414;53.436;8.828;2022-09-09T06:51:24;100740.31;;;14.88
74060;BMP280;62414;53.436;8.828;2022-09-09T06:53:52;100746.00;;;15.00
74060;BMP280;62414;53.436;8.828;2022-09-09T06:56:20;100747.78;;;15.12
74060;BMP280;62414;53.436;8.828;2022-09-09T06:58:48;100749.09;;;15.16
74060;BMP280;62414;53.436;8.828;2022-09-09T07:01:22;100753.00;;;15.25
74060;BMP280;62414;53.436;8.828;2022-09-09T07:03:51;100761.59;;;15.32
74060;BMP280;62414;53.436;8.828;2022-09-09T07:06:19;100755.50;;;15.37
74060;BMP280;62414;53.436;8.828;2022-09-09T07:08:49;100756.38;;;15.43
74060;BMP280;62414;53.436;8.828;2022-09-09T07:11:14;100764.09;;;15.45
74060;BMP280;62414;53.436;8.828;2022-09-09T07:13:41;100763.72;;;15.52
74060;BMP280;62414;53.436;8.828;2022-09-09T07:16:08;100763.41;;;15.59
74060;BMP280;62414;53.436;8.828;2022-09-09T07:18:34;100765.56;;;15.70
74060;BMP280;62414;53.436;8.828;2022-09-09T07:21:03;100769.72;;;15.65
74060;BMP280;62414;53.436;8.828;2022-09-09T07:23:29;100773.19;;;15.66
74060;BMP280;62414;53.436;8.828;2022-09-09T07:25:54;100764.47;;;15.76
74060;BMP280;62414;53.436;8.828;2022-09-09T07:28:20;100768.59;;;15.87
74060;BMP280;62414;53.436;8.828;2022-09-09T07:30:53;100767.31;;;15.97
74060;BMP280;62414;53.436;8.828;2022-09-09T07:33:18;100770.41;;;16.04
74060;BMP280;62414;53.436;8.828;2022-09-09T07:35:44;100774.31;;;16.12
74060;BMP280;62414;53.436;8.828;2022-09-09T07:38:10;100772.69;;;16.21
74060;BMP280;62414;53.436;8.828;2022-09-09T07:40:36;100777.59;;;16.31
74060;BMP280;62414;53.436;8.828;2022-09-09T07:43:02;100784.00;;;16.43
74060;BMP280;62414;53.436;8.828;2022-09-09T07:45:27;100775.06;;;16.57
74060;BMP280;62414;53.436;8.828;2022-09-09T07:47:53;100781.72;;;16.71
74060;BMP280;62414;53.436;8.828;2022-09-09T07:50:19;100778.66;;;16.84
74060;BMP280;62414;53.436;8.828;2022-09-09T07:52:44;100775.75;;;16.87
74060;BMP280;62414;53.436;8.828;2022-09-09T07:55:11;100785.03;;;16.95
74060;BMP280;62414;53.436;8.828;2022-09-09T07:57:37;100780.25;;;17.25
74060;BMP280;62414;53.436;8.828;2022-09-09T08:00:04;100788.56;;;17.57
74060;BMP280;62414;53.436;8.828;2022-09-09T08:02:37;100796.53;;;17.81
74060;BMP280;62414;53.436;8.828;2022-09-09T08:05:04;100793.94;;;17.92
74060;BMP280;62414;53.436;8.828;2022-09-09T08:07:30;100784.50;;;17.93
74060;BMP280;62414;53.436;8.828;2022-09-09T08:09:55;100794.31;;;18.05
74060;BMP280;62414;53.436;8.828;2022-09-09T08:12:26;100791.94;;;18.18
74060;BMP280;62414;53.436;8.828;2022-09-09T08:14:52;100787.28;;;18.24
74060;BMP280;62414;53.436;8.828;2022-09-09T08:17:18;100794.78;;;18.29
74060;BMP280;62414;53.436;8.828;2022-09-09T08:19:44;100797.94;;;18.22
74060;BMP280;62414;53.436;8.828;2022-09-09T08:22:14;100785.16;;;18.14
74060;BMP280;62414;53.436;8.828;2022-09-09T08:24:39;100791.75;;;17.96
74060;BMP280;62414;53.436;8.828;2022-09-09T08:27:05;100785.63;;;18.07
74060;BMP280;62414;53.436;8.828;2022-09-09T08:29:32;100786.03;;;17.99
74060;BMP280;62414;53.436;8.828;2022-09-09T08:31:58;100790.56;;;18.02
74060;BMP280;62414;53.436;8.828;2022-09-09T08:34:25;100789.59;;;18.05
74060;BMP280;62414;53.436;8.828;2022-09-09T08:36:52;100794.13;;;18.14
74060;BMP280;62414;53.436;8.828;2022-09-09T08:39:22;100790.06;;;18.30
74060;BMP280;62414;53.436;8.828;2022-09-09T08:42:09;100783.94;;;18.46
74060;BMP280;62414;53.436;8.828;2022-09-09T08:44:54;100791.75;;;18.27
74060;BMP280;62414;53.436;8.828;2022-09-09T08:47:27;100791.22;;;18.23
74060;BMP280;62414;53.436;8.828;2022-09-09T08:50:04;100796.50;;;18.27
74060;BMP280;62414;53.436;8.828;2022-09-09T08:52:47;100802.84;;;18.38
74060;BMP280;62414;53.436;8.828;2022-09-09T08:55:22;100796.75;;;18.55
74060;BMP280;62414;53.436;8.828;2022-09-09T08:57:51;100802.03;;;18.69
74060;BMP280;62414;53.436;8.828;2022-09-09T09:00:19;100799.72;;;18.57
74060;BMP280;62414;53.436;8.828;2022-09-09T09:02:48;100800.81;;;18.70
74060;BMP280;62414;53.436;8.828;2022-09-09T09:05:25;100804.94;;;18.86
74060;BMP280;62414;53.436;8.828;2022-09-09T09:08:00;100804.41;;;18.88
74060;BMP280;62414;53.436;8.828;2022-09-09T09:10:39;100807.38;;;18.84
74060;BMP280;62414;53.436;8.828;2022-09-09T09:13:14;100814.63;;;18.82
74060;BMP280;62414;53.436;8.828;2022-09-09T09:15:42;100810.03;;;18.67
74060;BMP280;62414;53.436;8.828;2022-09-09T09:18:10;100809.50;;;18.63
74060;BMP280;62414;53.436;8.828;2022-09-09T09:20:41;100810.09;;;18.79
74060;BMP280;62414;53.436;8.828;2022-09-09T09:23:16;100812.22;;;18.95
74060;BMP280;62414;53.436;8.828;2022-09-09T09:25:44;100814.25;;;19.00
74060;BMP280;62414;53.436;8.828;2022-09-09T09:28:13;100808.31;;;19.18
74060;BMP280;62414;53.436;8.828;2022-09-09T09:30:43;100811.91;;;19.41
74060;BMP280;62414;53.436;8.828;2022-09-09T09:33:14;100817.31;;;19.89
74060;BMP280;62414;53.436;8.828;2022-09-09T09:35:41;100823.81;;;20.14
74060;BMP280;62414;53.436;8.828;2022-09-09T09:38:16;100821.03;;;19.86
74060;BMP280;62414;53.436;8.828;2022-09-09T09:40:51;100813.78;;;20.00
74060;BMP280;62414;53.436;8.828;2022-09-09T09:43:20;100817.25;;;19.84
74060;BMP280;62414;53.436;8.828;2022-09-09T09:45:48;100809.53;;;19.93
74060;BMP280;62414;53.436;8.828;2022-09-09T09:48:16;100818.31;;;20.14
74060;BMP280;62414;53.436;8.828;2022-09-09T09:50:48;100819.28;;;20.17
74060;BMP280;62414;53.436;8.828;2022-09-09T09:53:19;100824.03;;;19.99
74060;BMP280;62414;53.436;8.828;2022-09-09T09:55:52;100814.31;;;20.15
74060;BMP280;62414;53.436;8.828;2022-09-09T09:58:18;100821.06;;;20.42
74060;BMP280;62414;53.436;8.828;2022-09-09T10:00:50;100827.53;;;20.61
74060;BMP280;62414;53.436;8.828;2022-09-09T10:03:22;100831.00;;;20.67
74060;BMP280;62414;53.436;8.828;2022-09-09T10:05:50;100825.94;;;20.88
74060;BMP280;62414;53.436;8.828;2022-09-09T10:08:16;100839.75;;;20.83
74060;BMP280;62414;53.436;8.828;2022-09-09T10:10:52;100822.28;;;20.75
74060;BMP280;62414;53.436;8.828;2022-09-09T10:13:27;100828.50;;;20.81
74060;BMP280;62414;53.436;8.828;2022-09-09T10:16:05;100824.25;;;20.80
74060;BMP280;62414;53.436;8.828;2022-09-09T10:18:49;100822.25;;;20.80
74060;BMP280;62414;53.436;8.828;2022-09-09T10:21:28;100827.31;;;20.43
74060;BMP280;62414;53.436;8.828;2022-09-09T10:26:55;100818.75;;;20.74
74060;BMP280;62414;53.436;8.828;2022-09-09T10:29:32;100814.25;;;20.77
74060;BMP280;62414;53.436;8.828;2022-09-09T10:32:12;100809.94;;;21.03
74060;BMP280;62414;53.436;8.828;2022-09-09T10:34:55;100813.38;;;21.10
74060;BMP280;62414;53.436;8.828;2022-09-09T10:37:30;100809.69;;;20.96
74060;BMP280;62414;53.436;8.828;2022-09-09T10:40:12;100815.91;;;21.02
74060;BMP280;62414;53.436;8.828;2022-09-09T10:42:41;100807.72;;;20.80
74060;BMP280;62414;53.436;8.828;2022-09-09T10:45:16;100817.44;;;21.09
74060;BMP280;62414;53.436;8.828;2022-09-09T10:47:59;100811.31;;;21.32
74060;BMP280;62414;53.436;8.828;2022-09-09T10:50:44;100810.00;;;21.80
74060;BMP280;62414;53.436;8.828;2022-09-09T10:53:15;100812.22;;;22.17
74060;BMP280;62414;53.436;8.828;2022-09-09T10:55:45;100805.13;;;22.52
74060;BMP280;62414;53.436;8.828;2022-09-09T10:58:17;100808.50;;;22.88
74060;BMP280;62414;53.436;8.828;2022-09-09T11:00:47;100801.72;;;23.07
74060;BMP280;62414;53.436;8.828;2022-09-09T11:03:20;100802.59;;;23.53
74060;BMP280;62414;53.436;8.828;2022-09-09T11:05:49;100806.47;;;23.63
74060;BMP280;62414;53.436;8.828;2022-09-09T11:08:18;100796.69;;;23.75
74060;BMP280;62414;53.436;8.828;2022-09-09T11:10:46;100812.59;;;23.88
74060;BMP280;62414;53.436;8.828;2022-09-09T11:13:17;100801.31;;;23.54
74060;BMP280;62414;53.436;8.828;2022-09-09T11:15:46;100807.31;;;23.21
74060;BMP280;62414;53.436;8.828;2022-09-09T11:18:17;100808.06;;;23.21
74060;BMP280;62414;53.436;8.828;2022-09-09T11:20:44;100797.47;;;23.25
74060;BMP280;62414;53.436;8.828;2022-09-09T11:23:15;100805.13;;;23.51
74060;BMP280;62414;53.436;8.828;2022-09-09T11:25:44;100803.34;;;23.99
74060;BMP280;62414;53.436;8.828;2022-09-09T11:28:27;100796.13;;;23.96
74060;BMP280;62414;53.436;8.828;2022-09-09T11:31:06;100799.38;;;23.81
74060;BMP280;62414;53.436;8.828;2022-09-09T11:33:50;100792.88;;;23.47
74060;BMP280;62414;53.436;8.828;2022-09-09T11:36:33;100796.03;;;23.19
74060;BMP280;62414;53.436;8.828;2022-09-09T11:39:15;100808.81;;;23.22
74060;BMP280;62414;53.436;8.828;2022-09-09T11:41:43;100807.09;;;23.19
74060;BMP280;62414;53.436;8.828;2022-09-09T11:44:11;100810.13;;;23.15
74060;BMP280;62414;53.436;8.828;2022-09-09T11:46:38;100801.38;;;22.73
74060;BMP280;62414;53.436;8.828;2022-09-09T11:49:26;100809.25;;;22.39
74060;BMP280;62414;53.436;8.828;2022-09-09T11:51:51;100804.56;;;22.29
74060;BMP280;62414;53.436;8.828;2022-09-09T11:54:28;100814.66;;;22.26
74060;BMP280;62414;53.436;8.828;2022-09-09T11:56:54;100807.53;;;22.12
74060;BMP280;62414;53.436;8.828;2022-09-09T11:59:21;100810.59;;;22.03
74060;BMP280;62414;53.436;8.828;2022-09-09T12:01:50;100802.78;;;21.77
74060;BMP280;62414;53.436;8.828;2022-09-09T12:04:35;100796.50;;;22.12
74060;BMP280;62414;53.436;8.828;2022-09-09T12:07:04;100794.94;;;22.41
74060;BMP280;62414;53.436;8.828;2022-09-09T12:09:37;100790.88;;;22.48
74060;BMP280;62414;53.436;8.828;2022-09-09T12:12:21;100798.97;;;22.64
74060;BMP280;62414;53.436;8.828;2022-09-09T12:14:56;100794.84;;;22.71
74060;BMP280;62414;53.436;8.828;2022-09-09T12:17:22;100792.56;;;22.75
74060;BMP280;62414;53.436;8.828;2022-09-09T12:20:00;100792.41;;;22.86
74060;BMP280;62414;53.436;8.828;2022-09-09T12:22:31;100800.41;;;23.27
74060;BMP280;62414;53.436;8.828;2022-09-09T12:25:06;100802.91;;;23.82
74060;BMP280;62414;53.436;8.828;2022-09-09T12:27:40;100817.97;;;23.80
74060;BMP280;62414;53.436;8.828;2022-09-09T12:30:09;100825.53;;;24.25
74060;BMP280;62414;53.436;8.828;2022-09-09T12:32:36;100819.59;;;25.42
74060;BMP280;62414;53.436;8.828;2022-09-09T12:35:10;100816.06;;;26.32
74060;BMP280;62414;53.436;8.828;2022-09-09T12:37:38;100810.53;;;26.40
74060;BMP280;62414;53.436;8.828;2022-09-09T12:40:17;100817.31;;;26.31
74060;BMP280;62414;53.436;8.828;2022-09-09T12:42:43;100802.78;;;25.89
74060;BMP280;62414;53.436;8.828;2022-09-09T12:45:16;100805.13;;;25.77
74060;BMP280;62414;53.436;8.828;2022-09-09T12:47:45;100804.56;;;25.03
74060;BMP280;62414;53.436;8.828;2022-09-09T12:50:23;100798.22;;;23.90
74060;BMP280;62414;53.436;8.828;2022-09-09T12:52:50;100798.34;;;23.33
74060;BMP280;62414;53.436;8.828;2022-09-09T12:55:18;100799.00;;;22.83
74060;BMP280;62414;53.436;8.828;2022-09-09T12:57:45;100790.31;;;22.30
74060;BMP280;62414;53.436;8.828;2022-09-09T13:00:14;100808.38;;;21.96
74060;BMP280;62414;53.436;8.828;2022-09-09T13:02:49;100808.47;;;20.91
74060;BMP280;62414;53.436;8.828;2022-09-09T13:05:17;100813.31;;;20.41
74060;BMP280;62414;53.436;8.828;2022-09-09T13:07:44;100814.06;;;20.24
74060;BMP280;62414;53.436;8.828;2022-09-09T13:10:11;100813.03;;;20.16
74060;BMP280;62414;53.436;8.828;2022-09-09T13:12:37;100812.81;;;20.31
74060;BMP280;62414;53.436;8.828;2022-09-09T13:15:03;100821.81;;;20.37
74060;BMP280;62414;53.436;8.828;2022-09-09T13:17:29;100827.00;;;20.68
74060;BMP280;62414;53.436;8.828;2022-09-09T13:19:55;100817.66;;;21.11
74060;BMP280;62414;53.436;8.828;2022-09-09T13:22:26;100822.44;;;21.57
74060;BMP280;62414;53.436;8.828;2022-09-09T13:25:01;100815.19;;;21.89
74060;BMP280;62414;53.436;8.828;2022-09-09T13:27:29;100818.44;;;21.93
74060;BMP280;62414;53.436;8.828;2022-09-09T13:29:55;100821.84;;;22.05
74060;BMP280;62414;53.436;8.828;2022-09-09T13:32:21;100815.44;;;21.91
74060;BMP280;62414;53.436;8.828;2022-09-09T13:34:50;100812.31;;;21.70
74060;BMP280;62414;53.436;8.828;2022-09-09T13:37:21;100810.84;;;21.69
74060;BMP280;62414;53.436;8.828;2022-09-09T13:39:52;100817.00;;;21.40
74060;BMP280;62414;53.436;8.828;2022-09-09T13:42:24;100820.38;;;21.16
74060;BMP280;62414;53.436;8.828;2022-09-09T13:44:50;100824.44;;;21.04
74060;BMP280;62414;53.436;8.828;2022-09-09T13:47:18;100816.19;;;20.98
74060;BMP280;62414;53.436;8.828;2022-09-09T13:49:44;100815.41;;;21.09
74060;BMP280;62414;53.436;8.828;2022-09-09T13:52:12;100814.81;;;21.33
74060;BMP280;62414;53.436;8.828;2022-09-09T13:54:37;100819.31;;;21.36
74060;BMP280;62414;53.436;8.828;2022-09-09T13:57:03;100820.28;;;21.38
74060;BMP280;62414;53.436;8.828;2022-09-09T13:59:30;100825.63;;;21.20
74060;BMP280;62414;53.436;8.828;2022-09-09T14:01:56;100824.66;;;21.12
74060;BMP280;62414;53.436;8.828;2022-09-09T14:04:21;100828.38;;;21.20
74060;BMP280;62414;53.436;8.828;2022-09-09T14:06:47;100823.91;;;21.06
74060;BMP280;62414;53.436;8.828;2022-09-09T14:09:15;100838.50;;;20.78
74060;BMP280;62414;53.436;8.828;2022-09-09T14:11:41;100843.00;;;20.76
74060;BMP280;62414;53.436;8.828;2022-09-09T14:14:06;100841.78;;;20.60